Terminal Aerodrome Forecast
Issued by NWS Cleveland, OH

Home | Current Version | Previous Version | Text Only | Print | Product List | Glossary Off
Versions: 1 2 3 4 5 6 7 8 9 10 11 12 13 14 15 16 17 18 19 20

000
FTUS41 KCLE 211300 AAA
TAFYNG
TAF AMD
KYNG 211328Z 2113/2212 27009KT 6SM -SHSN SCT015 OVC045
      TEMPO 2113/2116 2SM -SHSN BKN022
     FM212200 22005KT P6SM SCT040
     FM220200 18006KT P6SM BKN250=

USA.gov is the U.S. government's official web portal to all federal, state and local government web resources and services.